Main page
METAR-TAF:

METAR-TAF

Airports :

Prince Nayef bin Abdulaziz Regional Airport

Buraidah, Saudi Arabia

latitude: 26-18N, longitude: 043-46E, elevation: 648 m

Current weather observation

The report was made 31 minutes ago, at 05:00 UTC
Wind 10 kt from the Northeast
Temperature 17°C
Humidity 39%
Pressure 1024 hPa
Visibility 10 km or more
no clouds below 1500 m and no cumulonimbus

METAR: OEGS 240500Z 05010KT CAVOK 17/03 Q1024

Time: 08:31 (05:31 UTC)

Forecast

The report was made 6 hours and 31 minutes ago, at 23:00 UTC
Forecast valid from 24 at 00 UTC to 25 at 06 UTC
Wind 8 kt from the North/Northeast
Visibility 10 km or more
no clouds below 1500 m and no cumulonimbus

TAF: OEGS 232300Z 2400/2506 03008KT CAVOK

Weather observations and forecasts of more than 4000 airports (METAR and TAF reports).

The available stations are represented by yellow and red dots on the map.

Hover mouse over dot to see the name of the station.

Then click to see weather observations and forecasts.

To change the map : click on the green buttons with a black cross to zoom in, on the green button with a dash to zoom out, or on the green arrows for adjacent maps.


METAR-TAF: